Time;durP1;ratioP1;P1;durP2;ratioP2;P2;SDS_P1;SDS_P2;PMS_P1;PMS_P2;Temp;Humidity;BMP_temperature;BMP_pressure;BME280_temperature;BME280_humidity;BME280_pressure;Samples;Min_cycle;Max_cycle;Signal;HPM_P1;HPM_P2
2023/12/20 05:00:40;;;;;;;4.00;2.35;;;6.10;99.90;;;;;;5693768;23;20350;-73
2023/12/20 05:03:07;;;;;;;3.67;2.35;;;6.10;99.90;;;;;;4896967;29;20237;-73
2023/12/20 05:05:34;;;;;;;3.30;2.25;;;6.10;99.90;;;;;;4898887;29;20704;-73
2023/12/20 05:08:01;;;;;;;2.72;1.13;;;6.10;99.90;;;;;;4897814;29;20232;-73
2023/12/20 05:10:27;;;;;;;3.70;2.10;;;6.20;99.90;;;;;;4897049;29;20617;-73
2023/12/20 05:12:54;;;;;;;2.80;2.60;;;6.20;99.90;;;;;;4896144;29;20210;-73
2023/12/20 05:15:21;;;;;;;6.13;1.70;;;6.20;99.90;;;;;;4894565;29;20218;-73
2023/12/20 05:17:49;;;;;;;8.40;3.20;;;6.20;99.90;;;;;;4896109;29;20237;-73
2023/12/20 05:20:16;;;;;;;2.35;1.60;;;6.20;99.90;;;;;;4896557;29;20206;-74
2023/12/20 05:22:42;;;;;;;14.25;2.60;;;6.20;99.90;;;;;;4896540;29;20234;-73
2023/12/20 05:25:09;;;;;;;1.42;1.42;;;6.20;99.90;;;;;;4898166;29;20209;-73
2023/12/20 05:27:36;;;;;;;4.05;1.88;;;6.20;99.90;;;;;;4896828;29;20208;-75
2023/12/20 05:30:04;;;;;;;3.15;2.85;;;6.30;99.90;;;;;;4896156;29;20214;-73
2023/12/20 05:32:31;;;;;;;3.55;1.77;;;6.30;99.90;;;;;;4898977;29;20237;-74
2023/12/20 05:34:59;;;;;;;2.50;2.30;;;6.30;99.90;;;;;;4897160;29;20215;-74
2023/12/20 05:37:26;;;;;;;2.15;1.75;;;6.30;99.90;;;;;;4898617;29;20223;-74
2023/12/20 05:39:52;;;;;;;4.22;2.53;;;6.30;99.90;;;;;;4898969;29;20209;-74
2023/12/20 05:42:19;;;;;;;5.55;2.58;;;6.30;99.90;;;;;;4892401;29;20262;-74
2023/12/20 05:44:46;;;;;;;2.70;2.60;;;6.30;99.90;;;;;;4900251;29;20207;-73
2023/12/20 05:47:12;;;;;;;1.80;1.50;;;6.30;99.90;;;;;;4901481;29;20215;-73
2023/12/20 05:49:39;;;;;;;12.68;2.33;;;6.30;99.90;;;;;;4898362;29;20211;-74
2023/12/20 05:52:07;;;;;;;6.50;2.78;;;6.30;99.90;;;;;;4899892;29;20231;-74
2023/12/20 05:54:34;;;;;;;6.38;2.22;;;6.30;99.90;;;;;;4895854;29;20218;-74
2023/12/20 05:57:01;;;;;;;6.57;2.50;;;6.30;99.90;;;;;;4899595;29;20231;-73
2023/12/20 05:59:28;;;;;;;4.47;1.90;;;6.30;99.90;;;;;;4894310;29;20295;-74
2023/12/20 06:01:54;;;;;;;1.92;1.83;;;6.30;99.90;;;;;;4893936;29;20617;-73
2023/12/20 06:04:21;;;;;;;9.57;2.40;;;6.30;99.90;;;;;;4898054;29;20210;-74
2023/12/20 06:06:48;;;;;;;1.65;1.65;;;6.40;99.90;;;;;;4896866;29;20302;-74
2023/12/20 06:09:16;;;;;;;4.00;2.58;;;6.40;99.90;;;;;;4896965;29;20341;-73
2023/12/20 06:11:43;;;;;;;3.33;1.98;;;6.40;99.90;;;;;;4894558;29;20231;-74
2023/12/20 06:14:10;;;;;;;2.65;1.95;;;6.40;99.90;;;;;;4904594;29;20215;-73
2023/12/20 06:16:37;;;;;;;10.50;2.65;;;6.40;99.90;;;;;;4901588;29;20215;-73
2023/12/20 06:19:03;;;;;;;4.32;1.95;;;6.40;99.90;;;;;;4901120;29;20208;-73
2023/12/20 06:21:30;;;;;;;4.28;2.08;;;6.40;99.90;;;;;;4901436;29;20618;-73
2023/12/20 06:23:57;;;;;;;4.10;3.25;;;6.40;99.90;;;;;;4897761;29;20241;-73
2023/12/20 06:26:25;;;;;;;5.60;3.53;;;6.40;99.90;;;;;;4908125;29;20302;-73
2023/12/20 06:28:52;;;;;;;7.25;3.03;;;6.40;99.90;;;;;;4904226;29;20223;-73
2023/12/20 06:31:19;;;;;;;5.35;2.92;;;6.40;99.90;;;;;;4897893;29;20238;-72
2023/12/20 06:33:45;;;;;;;2.80;2.03;;;6.40;99.90;;;;;;4899046;29;20686;-72
2023/12/20 06:36:13;;;;;;;6.15;3.38;;;6.40;99.90;;;;;;4897855;29;20226;-73
2023/12/20 06:38:39;;;;;;;7.10;2.10;;;6.40;99.90;;;;;;4896227;29;20215;-73
2023/12/20 06:41:06;;;;;;;5.70;2.55;;;6.40;99.90;;;;;;4898668;29;20239;-73
2023/12/20 06:43:35;;;;;;;14.25;3.22;;;6.40;99.90;;;;;;4907777;29;20225;-73
2023/12/20 06:46:02;;;;;;;6.53;3.95;;;6.40;99.90;;;;;;4903745;29;20229;-73
2023/12/20 06:48:28;;;;;;;4.55;3.17;;;6.50;99.90;;;;;;4910216;29;20669;-73
2023/12/20 06:50:55;;;;;;;4.63;3.40;;;6.50;99.90;;;;;;4899287;29;20237;-72
2023/12/20 06:53:22;;;;;;;1.88;1.77;;;6.50;99.90;;;;;;4898290;29;20211;-73
2023/12/20 06:55:49;;;;;;;3.53;2.33;;;6.50;99.90;;;;;;4905092;29;20501;-73
2023/12/20 06:58:16;;;;;;;8.27;4.20;;;6.50;99.90;;;;;;4904217;29;20376;-73
2023/12/20 07:00:44;;;;;;;12.82;2.70;;;6.50;99.90;;;;;;4904463;29;20261;-73
2023/12/20 07:03:11;;;;;;;2.45;2.35;;;6.50;99.90;;;;;;4899622;29;20242;-73
2023/12/20 07:05:37;;;;;;;7.32;3.13;;;6.50;99.90;;;;;;4901654;29;20221;-73
2023/12/20 07:08:05;;;;;;;6.07;2.60;;;6.50;99.90;;;;;;4904957;29;20218;-73
2023/12/20 07:10:32;;;;;;;8.52;2.35;;;6.50;99.90;;;;;;4899900;29;20238;-73
2023/12/20 07:12:58;;;;;;;5.30;1.90;;;6.40;99.90;;;;;;4906106;29;20270;-74
2023/12/20 07:15:26;;;;;;;4.80;2.53;;;6.50;99.90;;;;;;4901107;29;20215;-73
2023/12/20 07:17:54;;;;;;;2.92;2.60;;;6.50;99.90;;;;;;4905034;29;20219;-73
2023/12/20 07:20:21;;;;;;;13.73;2.88;;;6.50;99.90;;;;;;4904118;29;20601;-73
2023/12/20 07:22:48;;;;;;;3.30;1.75;;;6.50;99.90;;;;;;4905216;29;20233;-73
2023/12/20 07:25:14;;;;;;;8.85;2.17;;;6.50;99.90;;;;;;4896742;29;20216;-73
2023/12/20 07:27:41;;;;;;;16.55;2.58;;;6.50;99.90;;;;;;4900763;29;20270;-73
2023/12/20 07:30:09;;;;;;;2.25;2.15;;;6.50;99.90;;;;;;4902949;29;20225;-74
2023/12/20 07:32:36;;;;;;;1.67;1.48;;;6.50;99.90;;;;;;4897076;29;20577;-73
2023/12/20 07:35:05;;;;;;;6.55;2.20;;;6.50;99.90;;;;;;4899973;29;20228;-74
2023/12/20 07:37:32;;;;;;;8.07;2.30;;;6.50;99.90;;;;;;4900642;29;20219;-73
2023/12/20 07:39:58;;;;;;;6.07;2.35;;;6.50;99.90;;;;;;4898319;29;20218;-73
2023/12/20 07:42:25;;;;;;;5.25;2.35;;;6.50;99.90;;;;;;4899536;29;20321;-73
2023/12/20 07:44:52;;;;;;;2.72;1.50;;;6.50;99.90;;;;;;4902885;29;20223;-72
2023/12/20 07:47:21;;;;;;;4.45;2.95;;;6.60;99.90;;;;;;4898731;29;20219;-72
2023/12/20 07:49:48;;;;;;;1.85;1.75;;;6.60;99.90;;;;;;4900939;29;20677;-73
2023/12/20 07:52:16;;;;;;;3.63;2.22;;;6.50;99.90;;;;;;4898328;29;20226;-73
2023/12/20 07:54:43;;;;;;;5.18;2.72;;;6.60;99.90;;;;;;4896887;29;20229;-73
2023/12/20 07:57:10;;;;;;;6.50;2.35;;;6.60;99.90;;;;;;4897975;29;20257;-73
2023/12/20 07:59:37;;;;;;;2.45;1.58;;;6.60;99.90;;;;;;4899938;29;20270;-73
2023/12/20 08:02:04;;;;;;;2.40;1.20;;;6.50;99.90;;;;;;4894172;29;20239;-73
2023/12/20 08:04:30;;;;;;;4.93;2.00;;;6.60;99.90;;;;;;4897330;29;20245;-73
2023/12/20 08:06:57;;;;;;;4.68;1.73;;;6.60;99.90;;;;;;4900887;29;20226;-73
2023/12/20 08:09:25;;;;;;;6.20;2.60;;;6.60;99.90;;;;;;4890431;29;20229;-73
2023/12/20 08:11:52;;;;;;;6.03;2.63;;;6.60;99.90;;;;;;4899055;29;20334;-73
2023/12/20 08:14:18;;;;;;;16.92;3.38;;;6.60;99.90;;;;;;4899090;29;20610;-73
2023/12/20 08:16:45;;;;;;;4.43;1.92;;;6.60;99.90;;;;;;4893190;29;20216;-74
2023/12/20 08:19:12;;;;;;;13.15;3.67;;;6.70;99.90;;;;;;4898857;29;20587;-73
2023/12/20 08:21:39;;;;;;;1.70;1.60;;;6.70;99.90;;;;;;4897389;29;20570;-73
2023/12/20 08:24:06;;;;;;;7.53;2.22;;;6.60;99.90;;;;;;4901855;29;20227;-73
2023/12/20 08:26:35;;;;;;;4.95;2.50;;;6.60;99.90;;;;;;4898032;29;20221;-73
2023/12/20 08:29:01;;;;;;;4.90;2.17;;;6.60;99.90;;;;;;4897463;29;20673;-73
2023/12/20 08:31:28;;;;;;;1.27;1.27;;;6.60;99.90;;;;;;4895207;29;20231;-73
2023/12/20 08:33:55;;;;;;;15.43;2.45;;;6.60;99.90;;;;;;4897358;29;20233;-74
2023/12/20 08:36:23;;;;;;;3.17;2.28;;;6.60;99.90;;;;;;4900925;29;20207;-73
2023/12/20 08:38:50;;;;;;;4.82;2.25;;;6.60;99.90;;;;;;4898857;29;20207;-73
2023/12/20 08:41:17;;;;;;;7.43;3.00;;;6.60;99.90;;;;;;4896946;29;20238;-73
2023/12/20 08:43:45;;;;;;;9.57;2.13;;;6.60;99.90;;;;;;4898263;29;20554;-73
2023/12/20 08:46:12;;;;;;;6.57;2.75;;;6.70;99.90;;;;;;4891349;29;20223;-73
2023/12/20 08:48:39;;;;;;;4.13;3.70;;;6.70;99.90;;;;;;4895218;29;20214;-72
2023/12/20 08:51:07;;;;;;;8.32;3.25;;;6.70;99.90;;;;;;4899957;29;20736;-73
2023/12/20 08:53:34;;;;;;;20.73;3.63;;;6.70;99.90;;;;;;4901143;29;20217;-73
2023/12/20 08:56:01;;;;;;;2.63;1.85;;;6.70;99.90;;;;;;4900422;29;20238;-72
2023/12/20 08:58:28;;;;;;;6.03;2.78;;;6.80;99.90;;;;;;4903187;29;20216;-72
2023/12/20 09:00:57;;;;;;;2.50;2.00;;;6.80;99.90;;;;;;4899109;29;20261;-72
2023/12/20 09:03:24;;;;;;;3.03;2.58;;;6.80;99.90;;;;;;4897603;29;20337;-71
2023/12/20 09:05:50;;;;;;;2.55;2.30;;;6.90;99.90;;;;;;4896784;29;20215;-71
2023/12/20 09:08:17;;;;;;;6.25;2.75;;;6.90;99.90;;;;;;4898260;29;20211;-71
2023/12/20 09:10:44;;;;;;;2.17;1.98;;;6.90;99.90;;;;;;4895546;29;20242;-71
2023/12/20 09:13:11;;;;;;;1.38;1.35;;;7.00;99.90;;;;;;4895745;29;20634;-71
2023/12/20 09:15:37;;;;;;;12.15;2.70;;;7.00;99.90;;;;;;4897351;29;20210;-71
2023/12/20 09:18:06;;;;;;;11.02;2.47;;;7.00;99.90;;;;;;4896270;29;20574;-72
2023/12/20 09:20:33;;;;;;;5.22;3.90;;;7.00;99.90;;;;;;4895944;29;20230;-73
2023/12/20 09:23:00;;;;;;;2.10;1.15;;;7.00;99.90;;;;;;4894963;29;20234;-72
2023/12/20 09:25:26;;;;;;;2.65;2.45;;;7.00;99.90;;;;;;4895917;29;20589;-72
2023/12/20 09:27:53;;;;;;;3.10;1.90;;;6.90;99.90;;;;;;4894180;29;20207;-72
2023/12/20 09:30:20;;;;;;;3.45;2.30;;;6.90;99.90;;;;;;4893531;29;20211;-72
2023/12/20 09:32:47;;;;;;;3.55;1.63;;;6.90;99.90;;;;;;4892426;29;20214;-73
2023/12/20 09:35:15;;;;;;;2.47;2.28;;;6.80;99.90;;;;;;4895211;29;20203;-72
2023/12/20 09:37:44;;;;;;;7.82;2.90;;;6.80;99.90;;;;;;4897560;29;20223;-73
2023/12/20 09:40:13;;;;;;;1.45;1.40;;;6.70;99.90;;;;;;4897400;29;20226;-73
2023/12/20 09:42:47;;;;;;;7.28;2.88;;;6.70;99.90;;;;;;4892078;29;20639;-73
2023/12/20 09:45:16;;;;;;;6.70;3.22;;;6.70;99.90;;;;;;4895254;29;20237;-74
2023/12/20 09:47:44;;;;;;;2.00;1.92;;;6.70;99.90;;;;;;4900732;29;20263;-72
2023/12/20 09:50:11;;;;;;;10.32;2.40;;;6.70;99.90;;;;;;4906174;29;20212;-73
2023/12/20 09:52:40;;;;;;;5.82;2.00;;;6.70;99.90;;;;;;4902750;29;20215;-73
2023/12/20 09:55:09;;;;;;;7.63;3.25;;;6.70;99.90;;;;;;4903449;29;20203;-74
2023/12/20 09:57:36;;;;;;;6.07;2.45;;;6.70;99.90;;;;;;4908702;29;20207;-74
2023/12/20 10:00:03;;;;;;;6.15;2.55;;;6.70;99.90;;;;;;4902557;29;20211;-74
2023/12/20 10:02:32;;;;;;;5.72;2.92;;;6.70;99.90;;;;;;4901089;29;20242;-74
2023/12/20 10:04:59;;;;;;;14.18;2.08;;;6.70;99.90;;;;;;4898633;29;20223;-73
2023/12/20 10:07:26;;;;;;;1.77;1.13;;;6.60;99.90;;;;;;4898683;29;20278;-73
2023/12/20 10:09:55;;;;;;;3.92;1.25;;;6.40;99.90;;;;;;4894029;29;20207;-73
2023/12/20 10:12:22;;;;;;;0.95;0.95;;;6.30;99.90;;;;;;4886742;29;20962;-73
2023/12/20 10:14:49;;;;;;;0.95;0.50;;;6.20;99.90;;;;;;4894745;29;20293;-73
2023/12/20 10:17:16;;;;;;;1.38;0.80;;;6.20;99.90;;;;;;4894887;29;20211;-74
2023/12/20 10:19:44;;;;;;;1.40;0.80;;;6.20;99.90;;;;;;4896133;29;20214;-73
2023/12/20 10:22:11;;;;;;;1.05;1.05;;;6.20;99.90;;;;;;4895800;29;20714;-73
2023/12/20 10:24:38;;;;;;;2.05;1.95;;;6.30;99.90;;;;;;4898062;29;20263;-74
2023/12/20 10:27:07;;;;;;;1.85;0.90;;;6.30;99.90;;;;;;4895559;29;20211;-74
2023/12/20 10:29:35;;;;;;;0.50;0.50;;;6.30;99.90;;;;;;4894657;29;20213;-73
2023/12/20 10:32:23;;;;;;;0.90;0.90;;;6.30;99.90;;;;;;4891049;29;20768;-72
2023/12/20 10:34:50;;;;;;;2.25;1.10;;;6.40;99.90;;;;;;4897067;29;20215;-72
2023/12/20 10:37:17;;;;;;;0.63;0.63;;;6.40;99.90;;;;;;4895195;29;20226;-73
2023/12/20 10:39:44;;;;;;;0.45;0.45;;;6.40;99.90;;;;;;4894735;29;20207;-73
2023/12/20 10:42:13;;;;;;;1.15;1.08;;;6.40;99.90;;;;;;4899362;29;20232;-73
2023/12/20 10:44:40;;;;;;;3.55;0.88;;;6.40;99.90;;;;;;4896557;29;20222;-73
2023/12/20 10:47:08;;;;;;;0.50;0.50;;;6.40;99.90;;;;;;4897941;29;20234;-73
2023/12/20 10:49:37;;;;;;;1.75;1.08;;;6.40;99.90;;;;;;4897825;29;20208;-73
2023/12/20 10:52:06;;;;;;;0.30;0.30;;;6.40;99.90;;;;;;4895792;29;20744;-73
2023/12/20 10:54:33;;;;;;;0.93;0.43;;;6.40;99.90;;;;;;4891408;29;20298;-73
2023/12/20 10:57:04;;;;;;;0.65;0.40;;;6.40;99.90;;;;;;4896555;29;20207;-74
2023/12/20 10:59:34;;;;;;;2.08;0.40;;;6.40;99.90;;;;;;4896660;29;20321;-74
2023/12/20 11:02:05;;;;;;;1.42;0.45;;;6.40;99.90;;;;;;4896304;29;20241;-73
2023/12/20 11:04:38;;;;;;;1.00;0.47;;;6.40;99.90;;;;;;4897278;29;20237;-74
2023/12/20 11:07:16;;;;;;;0.70;0.70;;;6.40;99.90;;;;;;4897183;29;20305;-74
2023/12/20 11:09:50;;;;;;;0.20;0.20;;;6.30;99.90;;;;;;4894547;29;20215;-74
2023/12/20 11:12:22;;;;;;;0.90;0.90;;;6.30;99.90;;;;;;4896016;29;20231;-74
2023/12/20 11:14:52;;;;;;;2.50;0.90;;;6.30;99.90;;;;;;4897254;29;20215;-74
2023/12/20 11:17:19;;;;;;;3.00;0.50;;;6.30;99.90;;;;;;4897574;29;20207;-74
2023/12/20 11:20:10;;;;;;;0.32;0.32;;;6.30;99.90;;;;;;4897729;29;20278;-74
2023/12/20 11:22:37;;;;;;;0.30;0.30;;;6.30;99.90;;;;;;4892973;29;20207;-74
2023/12/20 11:25:06;;;;;;;2.70;0.30;;;6.40;99.90;;;;;;4897412;29;20283;-74
2023/12/20 11:27:33;;;;;;;6.20;0.65;;;6.40;99.90;;;;;;4897501;29;20218;-73
2023/12/20 11:30:05;;;;;;;1.60;0.90;;;6.40;99.90;;;;;;4896549;29;20658;-72
2023/12/20 11:32:34;;;;;;;2.20;0.52;;;6.40;99.90;;;;;;4893420;29;20613;-75
2023/12/20 11:35:17;;;;;;;0.50;0.50;;;6.40;99.90;;;;;;4898590;29;20240;-73
2023/12/20 11:37:43;;;;;;;1.48;0.60;;;6.40;99.90;;;;;;4897116;29;20204;-73
2023/12/20 11:40:14;;;;;;;5.88;0.88;;;6.40;99.90;;;;;;4895409;29;20208;-74
2023/12/20 11:42:42;;;;;;;0.75;0.75;;;6.40;99.90;;;;;;4896327;29;20670;-74
2023/12/20 11:45:13;;;;;;;2.15;0.55;;;6.50;99.90;;;;;;4890971;29;20677;-74
2023/12/20 11:47:41;;;;;;;0.75;0.75;;;6.50;99.90;;;;;;4892724;29;20532;-72
2023/12/20 11:50:08;;;;;;;4.05;0.65;;;6.50;99.90;;;;;;4896335;29;20218;-73
2023/12/20 11:52:35;;;;;;;0.68;0.43;;;6.50;99.90;;;;;;4896645;29;20253;-73
2023/12/20 11:55:03;;;;;;;0.55;0.50;;;6.50;99.90;;;;;;4896852;29;20204;-73
2023/12/20 11:57:30;;;;;;;0.63;0.63;;;6.50;99.90;;;;;;4894944;29;20214;-73
2023/12/20 11:59:57;;;;;;;0.82;0.82;;;6.40;99.90;;;;;;4896318;29;20207;-73
2023/12/20 12:02:25;;;;;;;3.33;1.55;;;6.40;99.90;;;;;;4896994;29;20246;-73
2023/12/20 12:04:52;;;;;;;1.02;0.65;;;6.50;99.90;;;;;;4897080;29;20250;-73
2023/12/20 12:07:20;;;;;;;1.73;0.75;;;6.60;99.90;;;;;;4897092;29;20207;-73
2023/12/20 12:09:46;;;;;;;0.65;0.65;;;6.60;99.90;;;;;;4894532;29;20624;-72
2023/12/20 12:12:13;;;;;;;0.77;0.77;;;6.70;99.90;;;;;;4895901;29;20301;-73
2023/12/20 12:14:41;;;;;;;1.52;1.42;;;6.70;99.90;;;;;;4897422;29;20207;-73
2023/12/20 12:17:11;;;;;;;3.42;0.68;;;6.70;99.90;;;;;;4892779;29;20211;-73
2023/12/20 12:19:40;;;;;;;1.60;1.50;;;6.70;99.90;;;;;;4895274;29;20238;-73
2023/12/20 12:22:10;;;;;;;4.22;1.58;;;6.70;99.90;;;;;;4897151;29;20223;-73
2023/12/20 12:24:36;;;;;;;4.32;0.80;;;6.80;99.90;;;;;;4896784;29;20233;-73
2023/12/20 12:27:04;;;;;;;2.50;0.80;;;6.80;99.90;;;;;;4894971;29;20223;-73
2023/12/20 12:29:30;;;;;;;0.95;0.95;;;6.90;99.90;;;;;;4891204;29;20238;-73
2023/12/20 12:31:57;;;;;;;2.33;2.22;;;6.90;99.90;;;;;;4896400;29;20236;-73
2023/12/20 12:34:26;;;;;;;1.65;0.77;;;6.90;99.90;;;;;;4897182;29;20263;-73
2023/12/20 12:36:54;;;;;;;0.93;0.90;;;6.90;99.90;;;;;;4895322;29;20253;-73
2023/12/20 12:39:21;;;;;;;6.03;1.45;;;6.90;99.90;;;;;;4897870;29;20212;-73
2023/12/20 12:41:48;;;;;;;14.02;1.42;;;6.90;99.90;;;;;;4900920;29;20231;-73
2023/12/20 12:44:14;;;;;;;9.75;1.55;;;6.90;99.90;;;;;;4901077;29;20207;-73
2023/12/20 12:46:41;;;;;;;3.80;0.82;;;6.80;99.90;;;;;;4900205;29;20207;-73
2023/12/20 12:49:08;;;;;;;5.38;2.40;;;6.80;99.90;;;;;;4897042;29;20215;-73
2023/12/20 12:51:35;;;;;;;3.25;1.17;;;6.80;99.90;;;;;;4896710;29;20231;-73
2023/12/20 12:54:03;;;;;;;5.53;1.60;;;6.80;99.90;;;;;;4898105;29;20557;-72
2023/12/20 12:56:30;;;;;;;2.05;1.55;;;6.80;99.90;;;;;;4896526;29;20620;-73
2023/12/20 12:58:57;;;;;;;2.75;1.75;;;6.80;99.90;;;;;;4895919;29;20210;-72
2023/12/20 13:01:24;;;;;;;1.80;0.90;;;6.70;99.90;;;;;;4895094;29;20309;-74
2023/12/20 13:03:50;;;;;;;2.47;1.45;;;6.70;99.90;;;;;;4890118;29;20218;-73
2023/12/20 13:06:17;;;;;;;0.80;0.80;;;6.70;99.90;;;;;;4893285;29;20234;-73
2023/12/20 13:08:44;;;;;;;1.40;1.30;;;6.60;99.90;;;;;;4897420;29;20294;-72
2023/12/20 13:11:12;;;;;;;2.75;1.35;;;6.70;99.90;;;;;;4895638;29;20235;-73
2023/12/20 13:13:39;;;;;;;2.60;1.38;;;6.70;99.90;;;;;;4896178;29;20679;-73
2023/12/20 13:16:06;;;;;;;3.13;1.20;;;6.60;99.90;;;;;;4895925;29;20214;-72
2023/12/20 13:18:33;;;;;;;1.20;0.75;;;6.60;99.90;;;;;;4892029;29;20302;-72
2023/12/20 13:20:59;;;;;;;2.47;0.60;;;6.60;99.90;;;;;;4889620;29;20236;-73
2023/12/20 13:23:26;;;;;;;2.83;1.42;;;6.50;99.90;;;;;;4900450;29;20585;-72
2023/12/20 13:25:53;;;;;;;0.80;0.80;;;6.50;99.90;;;;;;4896999;29;20233;-73
2023/12/20 13:28:21;;;;;;;1.75;1.23;;;6.50;99.90;;;;;;4893929;29;20563;-73
2023/12/20 13:30:47;;;;;;;2.90;1.35;;;6.50;99.90;;;;;;4896428;29;20238;-73
2023/12/20 13:33:14;;;;;;;2.20;1.20;;;6.50;99.90;;;;;;4902476;29;20214;-72
2023/12/20 13:35:41;;;;;;;10.23;1.10;;;6.40;99.90;;;;;;4904491;29;20731;-73
2023/12/20 13:38:08;;;;;;;3.50;0.75;;;6.40;99.90;;;;;;4903933;29;20219;-73
2023/12/20 13:40:35;;;;;;;0.98;0.77;;;6.40;99.90;;;;;;4903761;29;20242;-72
2023/12/20 13:43:02;;;;;;;2.95;0.77;;;6.30;99.90;;;;;;4904524;29;20220;-72
2023/12/20 13:45:30;;;;;;;6.85;3.10;;;6.30;99.90;;;;;;4899739;29;20324;-72
2023/12/20 13:47:58;;;;;;;1.63;1.52;;;6.30;99.90;;;;;;4898645;29;20215;-72
2023/12/20 13:50:24;;;;;;;2.88;0.80;;;6.30;99.90;;;;;;4900023;29;20210;-72
2023/12/20 13:52:51;;;;;;;1.30;1.30;;;6.30;99.90;;;;;;4897410;29;20262;-72
2023/12/20 13:55:20;;;;;;;3.05;1.73;;;6.30;99.90;;;;;;4899280;29;20480;-72
2023/12/20 13:57:48;;;;;;;4.60;1.58;;;6.30;99.90;;;;;;4899446;29;20329;-72
2023/12/20 14:00:15;;;;;;;1.00;1.00;;;6.30;99.90;;;;;;4899460;29;20211;-72
2023/12/20 14:02:44;;;;;;;0.90;0.90;;;6.30;99.90;;;;;;4900320;29;20215;-72
2023/12/20 14:05:10;;;;;;;4.60;1.33;;;6.30;99.90;;;;;;4895382;29;20240;-72
2023/12/20 14:07:37;;;;;;;7.82;1.80;;;6.30;99.90;;;;;;4898997;29;20226;-72
2023/12/20 14:10:06;;;;;;;2.00;1.60;;;6.30;99.90;;;;;;4898557;29;20219;-72
2023/12/20 14:12:36;;;;;;;3.28;1.30;;;6.30;99.90;;;;;;4899739;29;20244;-72
2023/12/20 14:15:03;;;;;;;2.35;1.20;;;6.30;99.90;;;;;;4899536;29;20217;-72
2023/12/20 14:17:31;;;;;;;1.15;0.90;;;6.30;99.90;;;;;;4898228;29;20352;-72
2023/12/20 14:19:59;;;;;;;1.85;0.90;;;6.30;99.90;;;;;;4898937;29;20268;-73
2023/12/20 14:22:25;;;;;;;6.63;1.50;;;6.30;99.90;;;;;;4898485;29;20230;-73
2023/12/20 14:24:52;;;;;;;10.68;1.88;;;6.30;99.90;;;;;;4897505;29;20230;-72
2023/12/20 14:27:22;;;;;;;6.88;2.47;;;6.30;99.90;;;;;;4895446;29;20224;-72
2023/12/20 14:29:49;;;;;;;1.30;1.20;;;6.30;99.90;;;;;;4898054;29;20270;-73
2023/12/20 14:32:15;;;;;;;4.15;1.23;;;6.30;99.90;;;;;;4898576;29;20238;-73
2023/12/20 14:34:42;;;;;;;2.10;2.00;;;6.30;99.90;;;;;;4895964;29;20207;-72
2023/12/20 14:37:11;;;;;;;3.95;1.35;;;6.30;99.90;;;;;;4896481;29;20274;-73
2023/12/20 14:39:41;;;;;;;3.03;1.27;;;6.20;99.90;;;;;;4895471;29;20317;-73
2023/12/20 14:42:11;;;;;;;1.67;1.38;;;6.20;99.90;;;;;;4896647;29;20586;-71
2023/12/20 14:44:37;;;;;;;3.97;1.45;;;6.20;99.90;;;;;;4897621;29;20210;-71
2023/12/20 14:47:05;;;;;;;2.15;1.50;;;6.20;99.90;;;;;;4897326;29;20697;-71
2023/12/20 14:49:31;;;;;;;1.90;1.40;;;6.20;99.90;;;;;;4899133;29;20225;-72
2023/12/20 14:51:59;;;;;;;4.32;1.88;;;6.20;99.90;;;;;;4903851;29;20244;-72
2023/12/20 14:54:27;;;;;;;6.55;1.90;;;6.20;99.90;;;;;;4901070;29;20424;-72
2023/12/20 14:56:53;;;;;;;5.15;1.58;;;6.10;99.90;;;;;;4902187;29;20669;-72
2023/12/20 14:59:21;;;;;;;2.15;1.45;;;6.10;99.90;;;;;;4900948;29;20232;-73
2023/12/20 15:01:48;;;;;;;5.93;1.70;;;6.10;99.90;;;;;;4902626;29;20239;-71
2023/12/20 15:04:15;;;;;;;6.10;1.42;;;6.10;99.90;;;;;;4900069;29;20210;-71
2023/12/20 15:06:42;;;;;;;7.50;1.75;;;6.00;99.90;;;;;;4898132;29;20257;-72
2023/12/20 15:09:09;;;;;;;1.75;1.17;;;6.10;99.90;;;;;;4902790;29;20210;-72
2023/12/20 15:11:37;;;;;;;8.80;1.60;;;6.00;99.90;;;;;;4901601;29;20636;-72
2023/12/20 15:14:04;;;;;;;9.52;2.00;;;6.10;99.90;;;;;;4897728;29;20239;-72
2023/12/20 15:16:30;;;;;;;4.72;1.98;;;6.00;99.90;;;;;;4896602;29;20215;-72
2023/12/20 15:18:57;;;;;;;3.70;0.77;;;6.00;99.90;;;;;;4900547;29;20258;-72
2023/12/20 15:21:31;;;;;;;4.07;1.40;;;6.00;99.90;;;;;;4901478;29;20242;-72
2023/12/20 15:24:05;;;;;;;10.82;2.80;;;5.90;99.90;;;;;;4899735;29;20232;-72
2023/12/20 15:26:32;;;;;;;6.70;1.83;;;5.90;99.90;;;;;;4898723;29;20224;-72
2023/12/20 15:29:01;;;;;;;9.05;2.05;;;5.90;99.90;;;;;;4900218;29;20222;-72
2023/12/20 15:31:28;;;;;;;4.00;1.30;;;5.90;99.90;;;;;;4900118;29;20329;-72
2023/12/20 15:33:54;;;;;;;6.90;1.42;;;5.90;99.90;;;;;;4902647;29;20215;-72
2023/12/20 15:36:21;;;;;;;1.73;1.33;;;6.00;99.90;;;;;;4902954;29;20706;-72
2023/12/20 15:38:48;;;;;;;5.00;2.20;;;6.00;99.90;;;;;;4900526;29;20219;-72
2023/12/20 15:41:18;;;;;;;2.35;1.35;;;6.00;99.90;;;;;;4897962;29;20246;-72
2023/12/20 15:43:45;;;;;;;2.85;1.20;;;6.00;99.90;;;;;;4897325;29;20214;-72
2023/12/20 15:46:14;;;;;;;6.15;2.22;;;6.00;99.90;;;;;;4897696;29;20233;-72
2023/12/20 15:48:41;;;;;;;4.93;1.45;;;6.00;99.90;;;;;;4901552;29;20215;-73
2023/12/20 15:51:09;;;;;;;1.60;1.50;;;6.00;99.90;;;;;;4905107;29;20230;-72
2023/12/20 15:53:37;;;;;;;4.03;1.55;;;6.00;99.90;;;;;;4901477;29;20278;-72
2023/12/20 15:56:04;;;;;;;0.95;0.95;;;6.00;99.90;;;;;;4904199;29;20207;-72
2023/12/20 15:58:31;;;;;;;2.67;2.33;;;6.00;99.90;;;;;;4907469;29;20213;-71
2023/12/20 16:00:58;;;;;;;2.70;1.10;;;6.00;99.90;;;;;;4905628;29;20302;-71
2023/12/20 16:03:26;;;;;;;3.35;2.28;;;6.00;99.90;;;;;;4902438;29;20233;-71
2023/12/20 16:05:53;;;;;;;3.80;1.48;;;5.90;99.90;;;;;;4899926;29;20298;-71
2023/12/20 16:08:20;;;;;;;5.53;1.40;;;5.90;99.90;;;;;;4901650;29;20284;-71
2023/12/20 16:10:47;;;;;;;7.15;1.80;;;5.90;99.90;;;;;;4903769;29;20238;-71
2023/12/20 16:13:14;;;;;;;4.10;1.63;;;5.90;99.90;;;;;;4903470;29;20214;-73
2023/12/20 16:15:40;;;;;;;3.33;1.67;;;5.80;99.90;;;;;;4902489;29;20278;-71
2023/12/20 16:18:10;;;;;;;5.65;2.33;;;5.80;99.90;;;;;;4904617;29;20241;-71
2023/12/20 16:20:38;;;;;;;3.72;1.85;;;5.80;99.90;;;;;;4908220;29;20274;-71
2023/12/20 16:23:05;;;;;;;1.40;1.30;;;5.80;99.90;;;;;;4909517;29;20683;-71
2023/12/20 16:25:32;;;;;;;5.88;1.48;;;5.80;99.90;;;;;;4912446;29;20230;-72
2023/12/20 16:27:59;;;;;;;3.03;2.30;;;5.80;99.90;;;;;;4911372;29;20306;-73
2023/12/20 16:30:26;;;;;;;3.97;2.00;;;5.80;99.90;;;;;;4910343;29;20305;-73
2023/12/20 16:32:53;;;;;;;2.15;1.92;;;5.70;99.90;;;;;;4905666;29;20213;-74
2023/12/20 16:35:20;;;;;;;1.25;1.05;;;5.70;99.90;;;;;;4902061;29;20217;-73
2023/12/20 16:37:48;;;;;;;5.00;1.25;;;5.80;99.90;;;;;;4899493;29;20222;-72
2023/12/20 16:40:15;;;;;;;1.67;1.20;;;5.80;99.90;;;;;;4896476;29;20674;-73
2023/12/20 16:42:42;;;;;;;3.25;1.05;;;5.80;99.90;;;;;;4898495;29;20225;-73
2023/12/20 16:45:09;;;;;;;4.93;3.03;;;5.80;99.90;;;;;;4896956;29;20214;-73
2023/12/20 16:47:36;;;;;;;3.03;1.55;;;5.80;99.90;;;;;;4897791;29;20241;-73
2023/12/20 16:50:06;;;;;;;5.57;2.13;;;5.80;99.90;;;;;;4894802;29;20240;-72
2023/12/20 16:52:34;;;;;;;2.45;1.30;;;5.80;99.90;;;;;;4890326;29;20776;-74
2023/12/20 16:55:02;;;;;;;3.42;1.48;;;5.80;99.90;;;;;;4896496;29;20210;-74
2023/12/20 16:57:29;;;;;;;5.45;0.90;;;5.80;99.90;;;;;;4895674;29;20222;-73
2023/12/20 16:59:55;;;;;;;5.05;1.23;;;5.80;99.90;;;;;;4894778;29;20239;-74
2023/12/20 17:02:22;;;;;;;2.60;2.17;;;5.80;99.90;;;;;;4894752;29;20745;-73
2023/12/20 17:04:49;;;;;;;3.15;2.95;;;5.80;99.90;;;;;;4896727;29;20748;-73
2023/12/20 17:07:16;;;;;;;7.60;1.20;;;5.80;99.90;;;;;;4895260;29;20392;-74
2023/12/20 17:09:44;;;;;;;3.65;2.00;;;5.80;99.90;;;;;;4893074;29;20219;-74
2023/12/20 17:12:12;;;;;;;1.23;1.10;;;5.80;99.90;;;;;;4897565;29;20689;-73
2023/12/20 17:14:39;;;;;;;1.73;1.63;;;5.80;99.90;;;;;;4896851;29;20210;-72
2023/12/20 17:17:08;;;;;;;1.15;0.80;;;5.70;99.90;;;;;;4899319;29;20217;-73
2023/12/20 17:19:35;;;;;;;3.38;2.00;;;5.80;99.90;;;;;;4901522;29;20226;-74
2023/12/20 17:22:02;;;;;;;1.75;1.25;;;5.80;99.90;;;;;;4895787;29;20230;-74
2023/12/20 17:24:29;;;;;;;3.38;1.35;;;5.80;99.90;;;;;;4897245;29;20233;-73
2023/12/20 17:26:56;;;;;;;3.45;1.10;;;5.80;99.90;;;;;;4890369;29;20343;-73
2023/12/20 17:29:24;;;;;;;1.65;1.42;;;5.80;99.90;;;;;;4886418;29;20225;-74
2023/12/20 17:31:51;;;;;;;3.10;1.27;;;5.80;99.90;;;;;;4887639;29;20234;-74
2023/12/20 17:34:18;;;;;;;1.55;1.42;;;5.80;99.90;;;;;;4889784;29;20297;-73
2023/12/20 17:36:46;;;;;;;3.17;2.83;;;5.80;99.90;;;;;;4891346;29;20495;-73
2023/12/20 17:39:14;;;;;;;9.95;4.07;;;5.90;99.90;;;;;;4889665;29;20214;-73
2023/12/20 17:41:41;;;;;;;4.35;2.35;;;5.90;99.90;;;;;;4892422;29;20659;-73
2023/12/20 17:44:07;;;;;;;1.77;1.67;;;5.90;99.90;;;;;;4889249;29;20243;-73
2023/12/20 17:46:36;;;;;;;5.32;2.05;;;5.90;99.90;;;;;;4887494;29;20242;-74
2023/12/20 17:49:03;;;;;;;3.20;1.83;;;5.90;99.90;;;;;;4897935;29;20214;-74
2023/12/20 17:51:30;;;;;;;7.30;2.22;;;5.90;99.90;;;;;;4891032;29;20239;-73
2023/12/20 17:54:00;;;;;;;7.18;2.97;;;5.90;99.90;;;;;;4892188;29;20217;-73
2023/12/20 17:56:28;;;;;;;1.45;1.35;;;5.90;99.90;;;;;;4892799;29;20587;-73